createdAt,value
2018-04-14T00:01:12.919Z,10.50
2018-04-14T00:03:39.582Z,10.40
2018-04-14T00:06:06.273Z,10.40
2018-04-14T00:08:33.241Z,10.40
2018-04-14T00:10:59.977Z,10.40
2018-04-14T00:13:26.925Z,10.30
2018-04-14T00:15:54.788Z,10.30
2018-04-14T00:18:21.531Z,10.30
2018-04-14T00:20:48.374Z,10.30
2018-04-14T00:23:15.217Z,10.30
2018-04-14T00:25:42.058Z,10.20
2018-04-14T00:28:08.900Z,10.20
2018-04-14T00:30:35.557Z,10.20
2018-04-14T00:33:02.306Z,10.20
2018-04-14T00:35:29.120Z,10.20
2018-04-14T00:37:55.868Z,10.20
2018-04-14T00:40:22.700Z,10.20
2018-04-14T00:42:49.547Z,10.10
2018-04-14T00:45:16.480Z,10.20
2018-04-14T00:47:43.229Z,10.10
2018-04-14T00:50:09.969Z,10.10
2018-04-14T00:52:36.678Z,10.10
2018-04-14T00:55:03.582Z,10.00
2018-04-14T00:57:30.394Z,10.00
2018-04-14T00:59:57.235Z,10.00
2018-04-14T01:02:24.073Z,10.00
2018-04-14T01:04:50.754Z,10.00
2018-04-14T01:07:17.580Z,10.00
2018-04-14T01:09:44.404Z,10.00
2018-04-14T01:12:11.238Z,10.00
2018-04-14T01:14:38.079Z,9.90
2018-04-14T01:17:04.820Z,9.90
2018-04-14T01:19:31.573Z,9.90
2018-04-14T01:21:58.406Z,9.90
2018-04-14T01:24:25.245Z,9.90
2018-04-14T01:26:51.905Z,9.90
2018-04-14T01:29:18.728Z,9.90
2018-04-14T01:31:45.677Z,9.90
2018-04-14T01:34:12.411Z,9.90
2018-04-14T01:36:39.474Z,9.90
2018-04-14T01:39:06.304Z,9.90
2018-04-14T01:41:32.993Z,9.90
2018-04-14T01:43:59.849Z,9.90
2018-04-14T01:46:26.622Z,9.80
2018-04-14T01:48:53.463Z,9.80
2018-04-14T01:51:20.412Z,9.80
2018-04-14T01:53:47.047Z,9.80
2018-04-14T01:56:13.789Z,9.80
2018-04-14T01:58:41.553Z,9.80
2018-04-14T02:01:08.454Z,9.70
2018-04-14T02:03:36.057Z,9.70
2018-04-14T02:06:03.001Z,9.70
2018-04-14T02:08:29.842Z,9.70
2018-04-14T02:10:56.687Z,9.70
2018-04-14T02:13:23.421Z,9.70
2018-04-14T02:15:50.268Z,9.70
2018-04-14T02:18:17.213Z,9.70
2018-04-14T02:20:44.158Z,9.60
2018-04-14T02:23:11.598Z,9.60
2018-04-14T02:25:38.455Z,9.60
2018-04-14T02:28:05.294Z,9.60
2018-04-14T02:30:31.961Z,9.70
2018-04-14T02:32:58.663Z,9.70
2018-04-14T02:35:25.523Z,9.70
2018-04-14T02:37:52.259Z,9.70
2018-04-14T02:40:19.099Z,9.70
2018-04-14T02:42:45.766Z,9.70
2018-04-14T02:45:12.695Z,9.70
2018-04-14T02:47:39.523Z,9.70
2018-04-14T02:50:06.268Z,9.70
2018-04-14T02:52:33.004Z,9.70
2018-04-14T02:54:59.949Z,9.70
2018-04-14T02:57:26.686Z,9.70
2018-04-14T02:59:53.431Z,9.70
2018-04-14T03:02:20.370Z,9.70
2018-04-14T03:04:47.114Z,9.60
2018-04-14T03:07:13.960Z,9.60
2018-04-14T03:09:40.696Z,9.60
2018-04-14T03:12:07.382Z,9.60
2018-04-14T03:14:34.056Z,9.60
2018-04-14T03:17:00.814Z,9.60
2018-04-14T03:19:27.759Z,9.60
2018-04-14T03:21:54.600Z,9.60
2018-04-14T03:24:21.442Z,9.60
2018-04-14T03:26:48.083Z,9.60
2018-04-14T03:29:15.026Z,9.50
2018-04-14T03:31:41.761Z,9.50
2018-04-14T03:34:08.430Z,9.50
2018-04-14T03:36:35.245Z,9.50
2018-04-14T03:39:02.190Z,9.50
2018-04-14T03:41:28.932Z,9.60
2018-04-14T03:43:55.590Z,9.60
2018-04-14T03:46:22.510Z,9.60
2018-04-14T03:48:49.455Z,9.60
2018-04-14T03:51:16.604Z,9.60
2018-04-14T03:53:43.346Z,9.60
2018-04-14T03:56:10.189Z,9.60
2018-04-14T03:58:37.131Z,9.60
2018-04-14T04:01:03.794Z,9.60
2018-04-14T04:03:30.612Z,9.60
2018-04-14T04:05:57.351Z,9.60
2018-04-14T04:08:24.297Z,9.60
2018-04-14T04:10:51.036Z,9.60
2018-04-14T04:13:17.874Z,9.60
2018-04-14T04:15:44.582Z,9.60
2018-04-14T04:18:11.329Z,9.60
2018-04-14T04:21:02.162Z,9.60
2018-04-14T04:23:41.284Z,9.60
2018-04-14T04:26:08.650Z,9.60
2018-04-14T04:28:36.002Z,9.60
2018-04-14T04:31:02.843Z,9.60
2018-04-14T04:33:29.481Z,9.60
2018-04-14T04:35:56.221Z,9.60
2018-04-14T04:38:22.854Z,9.60
2018-04-14T04:40:49.600Z,9.60
2018-04-14T04:43:16.236Z,9.60
2018-04-14T04:45:42.976Z,9.60
2018-04-14T04:48:09.613Z,9.60
2018-04-14T04:50:36.154Z,9.60
2018-04-14T04:53:02.787Z,9.60
2018-04-14T04:55:29.395Z,9.60
2018-04-14T04:57:56.102Z,9.60
2018-04-14T05:00:22.801Z,9.60
2018-04-14T05:02:49.440Z,9.60
2018-04-14T05:05:16.030Z,9.60
2018-04-14T05:07:42.815Z,9.70
2018-04-14T05:10:09.966Z,9.70
2018-04-14T05:12:36.514Z,9.70
2018-04-14T05:15:03.138Z,9.70
2018-04-14T05:17:29.775Z,9.70
2018-04-14T05:19:56.413Z,9.70
2018-04-14T05:22:22.986Z,9.70
2018-04-14T05:24:49.688Z,9.70
2018-04-14T05:27:16.321Z,9.70
2018-04-14T05:29:42.959Z,9.70
2018-04-14T05:32:09.518Z,9.70
2018-04-14T05:34:36.462Z,9.80
2018-04-14T05:37:02.997Z,9.80
2018-04-14T05:39:29.615Z,9.80
2018-04-14T05:41:56.248Z,9.90
2018-04-14T05:44:22.885Z,10.00
2018-04-14T05:46:49.631Z,10.00
2018-04-14T05:49:16.370Z,10.00
2018-04-14T05:51:43.109Z,10.10
2018-04-14T05:54:09.743Z,10.10
2018-04-14T05:56:36.271Z,10.20
2018-04-14T05:59:04.047Z,10.30
2018-04-14T06:01:30.579Z,10.20
2018-04-14T06:03:58.038Z,10.30
2018-04-14T06:06:24.879Z,10.30
2018-04-14T06:08:51.490Z,10.40
2018-04-14T06:11:18.872Z,10.40
2018-04-14T06:13:45.713Z,10.40
2018-04-14T06:16:12.557Z,10.50
2018-04-14T06:18:39.193Z,10.50
2018-04-14T06:21:05.929Z,10.60
2018-04-14T06:23:33.284Z,10.70
2018-04-14T06:26:00.336Z,10.70
2018-04-14T06:28:26.930Z,10.70
2018-04-14T06:30:54.528Z,10.60
2018-04-14T06:33:21.373Z,10.70
2018-04-14T06:35:48.216Z,10.70
2018-04-14T06:38:14.952Z,10.70
2018-04-14T06:40:41.798Z,10.70
2018-04-14T06:43:08.324Z,10.60
2018-04-14T06:45:35.893Z,10.70
2018-04-14T06:48:02.734Z,10.70
2018-04-14T06:50:29.369Z,10.70
2018-04-14T06:52:56.012Z,10.70
2018-04-14T06:55:22.775Z,10.70
2018-04-14T06:57:49.291Z,10.70
2018-04-14T07:00:15.922Z,10.70
2018-04-14T07:02:42.764Z,10.80
2018-04-14T07:05:09.312Z,10.80
2018-04-14T07:07:36.141Z,10.90
2018-04-14T07:10:02.881Z,11.00
2018-04-14T07:12:29.450Z,11.10
2018-04-14T07:14:55.977Z,11.10
2018-04-14T07:17:22.688Z,11.30
2018-04-14T07:19:49.328Z,11.40
2018-04-14T07:22:17.195Z,11.60
2018-04-14T07:24:43.828Z,11.60
2018-04-14T07:27:11.187Z,12.10
2018-04-14T07:29:38.644Z,12.10
2018-04-14T07:32:05.995Z,12.20
2018-04-14T07:34:33.452Z,12.30
2018-04-14T07:37:00.092Z,12.30
2018-04-14T07:39:26.831Z,12.60
2018-04-14T07:41:53.680Z,12.70
2018-04-14T07:44:20.313Z,12.60
2018-04-14T07:46:46.944Z,12.60
2018-04-14T07:49:14.504Z,12.60
2018-04-14T07:51:41.970Z,12.60
2018-04-14T07:54:08.597Z,12.60
2018-04-14T07:56:36.264Z,12.60
2018-04-14T07:59:02.999Z,12.60
2018-04-14T08:01:30.282Z,12.60
2018-04-14T08:03:56.991Z,12.60
2018-04-14T08:06:24.355Z,12.60
2018-04-14T08:08:51.090Z,12.60
2018-04-14T08:11:17.622Z,12.60
2018-04-14T08:13:45.113Z,12.50
2018-04-14T08:16:11.823Z,12.50
2018-04-14T08:18:38.460Z,12.50
2018-04-14T08:21:05.198Z,12.40
2018-04-14T08:23:31.837Z,12.40
2018-04-14T08:25:58.577Z,12.40
2018-04-14T08:28:25.928Z,12.60
2018-04-14T08:30:53.486Z,12.60
2018-04-14T08:33:20.843Z,12.70
2018-04-14T08:35:47.356Z,12.70
2018-04-14T08:38:14.626Z,12.70
2018-04-14T08:40:42.189Z,12.60
2018-04-14T08:43:09.750Z,12.50
2018-04-14T08:45:36.386Z,12.50
2018-04-14T08:48:02.934Z,12.40
2018-04-14T08:50:29.656Z,12.40
2018-04-14T08:52:56.399Z,12.40
2018-04-14T08:55:23.033Z,12.40
2018-04-14T08:57:50.303Z,12.40
2018-04-14T09:00:17.541Z,12.40
2018-04-14T09:02:44.382Z,12.40
2018-04-14T09:05:11.021Z,12.30
2018-04-14T09:07:37.655Z,12.20
2018-04-14T09:10:05.013Z,12.00
2018-04-14T09:12:31.649Z,12.00
2018-04-14T09:14:58.995Z,11.80
2018-04-14T09:17:26.473Z,11.80
2018-04-14T09:19:54.122Z,11.80
2018-04-14T09:22:20.863Z,11.80
2018-04-14T09:24:47.803Z,11.90
2018-04-14T09:27:14.547Z,11.90
2018-04-14T09:29:41.294Z,11.90
2018-04-14T09:32:08.124Z,11.90
2018-04-14T09:34:35.279Z,12.00
2018-04-14T09:37:02.131Z,12.10
2018-04-14T09:39:29.066Z,12.20
2018-04-14T09:41:55.839Z,12.20
2018-04-14T09:44:22.650Z,12.40
2018-04-14T09:46:49.381Z,12.40
2018-04-14T09:49:16.454Z,12.40
2018-04-14T09:51:43.167Z,12.50
2018-04-14T09:54:09.917Z,12.60
2018-04-14T09:56:36.863Z,12.70
2018-04-14T09:59:03.602Z,12.80
2018-04-14T10:01:30.446Z,12.80
2018-04-14T10:03:58.104Z,12.80
2018-04-14T10:06:25.049Z,12.90
2018-04-14T10:08:51.894Z,13.00
2018-04-14T10:11:18.735Z,13.00
2018-04-14T10:13:45.576Z,13.00
2018-04-14T10:16:12.243Z,12.90
2018-04-14T10:18:38.922Z,13.00
2018-04-14T10:21:05.694Z,13.00
2018-04-14T10:23:32.393Z,13.10
2018-04-14T10:25:59.240Z,13.20
2018-04-14T10:28:26.731Z,13.40
2018-04-14T10:30:53.576Z,13.40
2018-04-14T10:33:20.519Z,13.50
2018-04-14T10:35:47.221Z,13.40
2018-04-14T10:38:14.711Z,13.50
2018-04-14T10:40:41.659Z,13.50
2018-04-14T10:43:08.401Z,13.50
2018-04-14T10:45:35.097Z,13.60
2018-04-14T10:48:02.495Z,13.70
2018-04-14T10:50:29.229Z,13.80
2018-04-14T10:52:55.975Z,13.80
2018-04-14T10:55:22.816Z,13.80
2018-04-14T10:57:49.762Z,13.80
2018-04-14T11:00:16.603Z,14.00
2018-04-14T11:02:43.448Z,14.20
2018-04-14T11:05:10.348Z,14.40
2018-04-14T11:07:37.435Z,14.60
2018-04-14T11:10:04.175Z,14.60
2018-04-14T11:12:31.124Z,14.80
2018-04-14T11:14:58.071Z,14.90
2018-04-14T11:17:25.009Z,15.00
2018-04-14T11:19:55.707Z,15.20
2018-04-14T11:22:22.584Z,15.30
2018-04-14T11:24:50.148Z,15.50
2018-04-14T11:27:16.989Z,15.80
2018-04-14T11:29:44.774Z,15.90
2018-04-14T11:32:11.488Z,16.10
2018-04-14T11:34:38.537Z,16.20
2018-04-14T11:37:05.275Z,16.20
2018-04-14T11:39:33.164Z,16.20
2018-04-14T11:42:00.021Z,16.30
2018-04-14T11:44:26.928Z,16.30
2018-04-14T11:46:53.879Z,16.20
2018-04-14T11:49:21.029Z,16.10
2018-04-14T11:51:47.869Z,16.10
2018-04-14T11:54:14.815Z,16.00
2018-04-14T11:56:41.553Z,16.00
2018-04-14T11:59:08.290Z,16.00
2018-04-14T12:01:35.136Z,16.10
2018-04-14T12:04:01.876Z,16.30
2018-04-14T12:06:29.041Z,16.50
2018-04-14T12:08:55.717Z,16.20
2018-04-14T12:11:22.402Z,16.60
2018-04-14T12:13:49.347Z,16.60
2018-04-14T12:16:16.190Z,16.80
2018-04-14T12:18:42.968Z,17.00
2018-04-14T12:21:09.709Z,17.20
2018-04-14T12:23:37.173Z,17.00
2018-04-14T12:26:03.958Z,17.00
2018-04-14T12:28:30.744Z,17.00
2018-04-14T12:30:57.547Z,17.00
2018-04-14T12:33:24.250Z,16.90
2018-04-14T12:35:51.849Z,16.90
2018-04-14T12:38:18.897Z,16.80
2018-04-14T12:40:45.615Z,17.00
2018-04-14T12:43:12.513Z,16.90
2018-04-14T12:45:39.317Z,16.80
2018-04-14T12:48:06.159Z,16.80
2018-04-14T12:50:32.880Z,16.70
2018-04-14T12:53:00.360Z,16.70
2018-04-14T12:55:27.197Z,16.70
2018-04-14T12:57:53.992Z,16.70
2018-04-14T13:00:20.678Z,16.90
2018-04-14T13:02:47.853Z,17.10
2018-04-14T13:05:14.674Z,17.30
2018-04-14T13:07:41.413Z,17.40
2018-04-14T13:10:08.259Z,17.50
2018-04-14T13:12:35.200Z,17.70
2018-04-14T13:15:01.937Z,17.70
2018-04-14T13:17:28.779Z,17.50
2018-04-14T13:19:55.727Z,17.40
2018-04-14T13:22:22.382Z,17.30
2018-04-14T13:24:49.179Z,17.30
2018-04-14T13:27:15.942Z,17.20
2018-04-14T13:29:42.994Z,17.10
2018-04-14T13:32:09.734Z,17.20
2018-04-14T13:34:36.395Z,17.30
2018-04-14T13:37:03.210Z,17.20
2018-04-14T13:39:30.060Z,17.30
2018-04-14T13:41:56.898Z,17.10
2018-04-14T13:44:23.741Z,17.10
2018-04-14T13:46:50.578Z,17.00
2018-04-14T13:49:17.424Z,17.00
2018-04-14T13:51:44.373Z,16.90
2018-04-14T13:54:11.114Z,16.80
2018-04-14T13:56:37.796Z,16.70
2018-04-14T13:59:04.585Z,16.70
2018-04-14T14:01:31.431Z,16.70
2018-04-14T14:03:58.143Z,16.70
2018-04-14T14:06:25.013Z,16.70
2018-04-14T14:08:51.857Z,17.00
2018-04-14T14:11:18.596Z,17.00
2018-04-14T14:13:45.435Z,17.00
2018-04-14T14:16:12.108Z,17.00
2018-04-14T14:18:38.914Z,17.00
2018-04-14T14:21:05.763Z,17.00
2018-04-14T14:23:32.705Z,16.70
2018-04-14T14:25:59.548Z,16.50
2018-04-14T14:28:26.495Z,16.40
2018-04-14T14:30:53.538Z,16.30
2018-04-14T14:33:20.399Z,16.30
2018-04-14T14:35:47.111Z,16.20
2018-04-14T14:38:13.959Z,16.30
2018-04-14T14:40:40.806Z,16.40
2018-04-14T14:43:07.453Z,16.50
2018-04-14T14:45:34.136Z,16.50
2018-04-14T14:48:00.920Z,16.50
2018-04-14T14:50:28.073Z,16.40
2018-04-14T14:52:54.915Z,16.40
2018-04-14T14:55:21.543Z,16.40
2018-04-14T14:57:48.294Z,16.40
2018-04-14T15:00:15.031Z,16.20
2018-04-14T15:02:41.926Z,16.20
2018-04-14T15:05:08.723Z,16.20
2018-04-14T15:07:35.560Z,16.10
2018-04-14T15:10:02.403Z,15.10
2018-04-14T15:12:29.650Z,15.90
2018-04-14T15:14:56.299Z,15.90
2018-04-14T15:17:23.136Z,15.90
2018-04-14T15:19:49.814Z,15.80
2018-04-14T15:22:16.716Z,15.80
2018-04-14T15:24:43.559Z,15.60
2018-04-14T15:27:10.501Z,15.50
2018-04-14T15:29:37.173Z,15.40
2018-04-14T15:32:03.981Z,15.40
2018-04-14T15:34:30.672Z,15.30
2018-04-14T15:36:57.460Z,15.20
2018-04-14T15:39:24.404Z,15.30
2018-04-14T15:41:51.148Z,15.20
2018-04-14T15:44:18.112Z,15.10
2018-04-14T15:46:45.035Z,15.00
2018-04-14T15:49:11.769Z,14.90
2018-04-14T15:51:38.617Z,14.90
2018-04-14T15:54:05.351Z,14.80
2018-04-14T15:56:32.194Z,14.70
2018-04-14T15:58:59.040Z,14.60
2018-04-14T16:01:25.776Z,14.60
2018-04-14T16:03:52.465Z,14.50
2018-04-14T16:06:19.256Z,14.50
2018-04-14T16:08:46.204Z,14.50
2018-04-14T16:11:13.167Z,14.50
2018-04-14T16:13:39.992Z,14.40
2018-04-14T16:16:06.729Z,14.40
2018-04-14T16:18:33.678Z,14.40
2018-04-14T16:21:00.669Z,14.30
2018-04-14T16:23:27.459Z,14.30
2018-04-14T16:25:54.263Z,14.10
2018-04-14T16:28:22.582Z,13.90
2018-04-14T16:30:49.323Z,13.90
2018-04-14T16:33:16.137Z,13.90
2018-04-14T16:35:43.727Z,13.80
2018-04-14T16:38:10.398Z,13.70
2018-04-14T16:40:37.203Z,13.70
2018-04-14T16:43:03.879Z,13.60
2018-04-14T16:45:30.681Z,13.60
2018-04-14T16:47:57.628Z,13.60
2018-04-14T16:50:24.845Z,13.60
2018-04-14T16:52:52.440Z,13.50
2018-04-14T16:55:19.118Z,13.50
2018-04-14T16:57:47.291Z,13.30
2018-04-14T17:00:14.422Z,13.40
2018-04-14T17:02:41.243Z,13.40
2018-04-14T17:05:07.979Z,13.40
2018-04-14T17:07:34.674Z,13.30
2018-04-14T17:10:01.462Z,13.30
2018-04-14T17:12:28.404Z,13.20
2018-04-14T17:14:55.071Z,13.10
2018-04-14T17:17:21.988Z,13.00
2018-04-14T17:19:48.729Z,13.00
2018-04-14T17:22:15.573Z,12.90
2018-04-14T17:24:42.926Z,12.90
2018-04-14T17:27:09.617Z,12.80
2018-04-14T17:29:36.406Z,12.70
2018-04-14T17:32:03.349Z,12.70
2018-04-14T17:34:30.030Z,12.60
2018-04-14T17:36:57.650Z,12.50
2018-04-14T17:39:24.385Z,12.60
2018-04-14T17:41:51.062Z,12.40
2018-04-14T17:44:17.875Z,12.40
2018-04-14T17:46:44.549Z,12.30
2018-04-14T17:49:12.271Z,12.20
2018-04-14T17:51:38.930Z,12.20
2018-04-14T17:54:05.597Z,12.10
2018-04-14T17:56:32.596Z,12.00
2018-04-14T17:58:59.539Z,12.00
2018-04-14T18:01:26.383Z,11.90
2018-04-14T18:03:53.225Z,11.90
2018-04-14T18:06:20.314Z,11.80
2018-04-14T18:08:47.066Z,11.80
2018-04-14T18:11:13.701Z,11.70
2018-04-14T18:13:41.411Z,11.60
2018-04-14T18:16:08.273Z,11.60
2018-04-14T18:18:35.091Z,11.50
2018-04-14T18:21:01.833Z,11.50
2018-04-14T18:23:28.653Z,11.40
2018-04-14T18:25:55.408Z,11.20
2018-04-14T18:28:22.362Z,11.10
2018-04-14T18:30:49.306Z,11.00
2018-04-14T18:33:16.148Z,10.90
2018-04-14T18:35:42.888Z,10.80
2018-04-14T18:38:09.594Z,10.70
2018-04-14T18:40:36.306Z,10.60
2018-04-14T18:43:03.063Z,10.50
2018-04-14T18:45:29.830Z,10.40
2018-04-14T18:47:56.682Z,10.30
2018-04-14T18:50:23.386Z,10.20
2018-04-14T18:52:50.820Z,10.10
2018-04-14T18:55:17.555Z,10.10
2018-04-14T18:57:44.201Z,10.00
2018-04-14T19:00:11.069Z,9.90
2018-04-14T19:02:38.490Z,9.80
2018-04-14T19:05:05.988Z,9.70
2018-04-14T19:07:32.746Z,9.70
2018-04-14T19:09:59.472Z,9.70
2018-04-14T19:12:26.233Z,9.70
2018-04-14T19:14:52.929Z,9.70
2018-04-14T19:17:20.430Z,9.60
2018-04-14T19:19:47.142Z,9.60
2018-04-14T19:22:14.595Z,9.50
2018-04-14T19:24:42.040Z,9.50
2018-04-14T19:27:08.942Z,9.40
2018-04-14T19:29:35.606Z,9.40
2018-04-14T19:32:02.414Z,9.30
2018-04-14T19:34:29.356Z,9.30
2018-04-14T19:36:56.006Z,9.20
2018-04-14T19:39:22.833Z,9.20
2018-04-14T19:41:49.520Z,9.10
2018-04-14T19:44:17.852Z,9.00
2018-04-14T19:46:44.798Z,9.00
2018-04-14T19:49:11.742Z,9.00
2018-04-14T19:51:38.586Z,9.00
2018-04-14T19:54:05.367Z,8.90
2018-04-14T19:56:32.277Z,8.90
2018-04-14T19:58:58.957Z,8.80
2018-04-14T20:01:25.851Z,8.70
2018-04-14T20:03:52.694Z,8.70
2018-04-14T20:06:19.405Z,8.60
2018-04-14T20:08:46.375Z,8.60
2018-04-14T20:11:13.222Z,8.50
2018-04-14T20:13:39.960Z,8.50
2018-04-14T20:16:06.798Z,8.40
2018-04-14T20:18:33.657Z,8.40
2018-04-14T20:21:00.589Z,8.40
2018-04-14T20:23:27.329Z,8.30
2018-04-14T20:25:54.173Z,8.30
2018-04-14T20:28:21.342Z,8.30
2018-04-14T20:30:49.085Z,8.20
2018-04-14T20:33:15.928Z,8.20
2018-04-14T20:35:42.766Z,8.20
2018-04-14T20:38:09.613Z,8.20
2018-04-14T20:40:36.451Z,8.20
2018-04-14T20:43:03.296Z,8.20
2018-04-14T20:45:30.035Z,8.10
2018-04-14T20:47:56.984Z,8.10
2018-04-14T20:50:23.673Z,8.10
2018-04-14T20:52:51.418Z,8.00
2018-04-14T20:55:18.220Z,8.00
2018-04-14T20:57:45.066Z,8.00
2018-04-14T21:00:11.911Z,8.00
2018-04-14T21:02:39.056Z,8.00
2018-04-14T21:05:05.797Z,8.00
2018-04-14T21:07:32.640Z,7.90
2018-04-14T21:09:59.585Z,7.90
2018-04-14T21:12:26.322Z,7.80
2018-04-14T21:14:53.577Z,7.80
2018-04-14T21:17:20.356Z,7.80
2018-04-14T21:19:48.593Z,7.60
2018-04-14T21:22:15.836Z,7.70
2018-04-14T21:24:42.495Z,7.60
2018-04-14T21:27:09.324Z,7.60
2018-04-14T21:29:36.264Z,7.60
2018-04-14T21:32:03.213Z,7.80
2018-04-14T21:34:30.057Z,7.50
2018-04-14T21:36:56.899Z,7.50
2018-04-14T21:39:23.535Z,7.50
2018-04-14T21:41:50.378Z,7.50
2018-04-14T21:44:17.058Z,7.50
2018-04-14T21:46:43.854Z,7.50
2018-04-14T21:49:10.498Z,7.50
2018-04-14T21:51:37.322Z,7.40
2018-04-14T21:54:04.693Z,7.30
2018-04-14T21:56:31.534Z,7.30
2018-04-14T21:58:58.183Z,7.30
2018-04-14T22:01:25.011Z,7.20
2018-04-14T22:03:51.857Z,7.20
2018-04-14T22:06:18.550Z,7.20
2018-04-14T22:08:46.053Z,7.10
2018-04-14T22:11:12.890Z,7.10
2018-04-14T22:13:39.738Z,7.10
2018-04-14T22:16:06.464Z,7.00
2018-04-14T22:18:33.177Z,7.00
2018-04-14T22:21:00.778Z,7.00
2018-04-14T22:23:27.615Z,7.00
2018-04-14T22:25:54.568Z,7.00
2018-04-14T22:28:21.421Z,7.00
2018-04-14T22:30:48.454Z,7.10
2018-04-14T22:33:15.399Z,7.10
2018-04-14T22:35:42.232Z,7.10
2018-04-14T22:38:08.980Z,7.10
2018-04-14T22:40:35.812Z,7.20
2018-04-14T22:43:02.665Z,7.20
2018-04-14T22:45:29.482Z,7.20
2018-04-14T22:47:56.241Z,7.20
2018-04-14T22:50:23.091Z,7.20
2018-04-14T22:52:50.234Z,7.20
2018-04-14T22:55:16.895Z,7.20
2018-04-14T22:57:43.555Z,7.10
2018-04-14T23:00:10.458Z,7.10
2018-04-14T23:02:37.096Z,7.00
2018-04-14T23:05:04.458Z,7.00
2018-04-14T23:07:31.294Z,6.90
2018-04-14T23:09:58.033Z,6.80
2018-04-14T23:12:24.875Z,6.80
2018-04-14T23:14:51.525Z,6.70
2018-04-14T23:17:18.351Z,6.70
2018-04-14T23:19:45.088Z,6.60
2018-04-14T23:22:15.110Z,6.60
2018-04-14T23:24:41.952Z,6.50
2018-04-14T23:27:08.794Z,6.50
2018-04-14T23:29:35.544Z,6.40
2018-04-14T23:32:02.273Z,6.40
2018-04-14T23:34:28.969Z,6.40
2018-04-14T23:36:55.711Z,6.40
2018-04-14T23:39:22.595Z,6.40
2018-04-14T23:41:49.307Z,6.40
2018-04-14T23:44:16.176Z,6.30
2018-04-14T23:46:43.120Z,6.30
2018-04-14T23:49:09.768Z,6.20
2018-04-14T23:51:36.907Z,6.20
2018-04-14T23:54:03.648Z,6.20
2018-04-14T23:56:30.487Z,6.10
2018-04-14T23:58:57.259Z,6.10
